sensor_id;sensor_type;location;lat;lon;timestamp;temperature;humidity
5960;DHT22;3006;50.956;7.002;2022-07-01T00:01:42;17.50;99.90
5960;DHT22;3006;50.956;7.002;2022-07-01T00:04:11;17.50;99.90
5960;DHT22;3006;50.956;7.002;2022-07-01T00:06:39;17.50;99.90
5960;DHT22;3006;50.956;7.002;2022-07-01T00:09:07;17.60;99.90
5960;DHT22;3006;50.956;7.002;2022-07-01T00:11:38;17.60;99.90
5960;DHT22;3006;50.956;7.002;2022-07-01T00:14:06;17.50;99.90
5960;DHT22;3006;50.956;7.002;2022-07-01T00:16:34;17.50;99.90
5960;DHT22;3006;50.956;7.002;2022-07-01T00:19:03;17.50;99.90
5960;DHT22;3006;50.956;7.002;2022-07-01T00:21:32;17.60;99.90
5960;DHT22;3006;50.956;7.002;2022-07-01T00:24:00;17.50;99.90
5960;DHT22;3006;50.956;7.002;2022-07-01T00:26:28;17.40;99.90
5960;DHT22;3006;50.956;7.002;2022-07-01T00:28:58;17.40;99.90
5960;DHT22;3006;50.956;7.002;2022-07-01T00:31:26;17.50;99.90
5960;DHT22;3006;50.956;7.002;2022-07-01T00:33:54;17.50;99.90
5960;DHT22;3006;50.956;7.002;2022-07-01T00:36:22;17.50;99.90
5960;DHT22;3006;50.956;7.002;2022-07-01T00:38:56;17.60;99.90
5960;DHT22;3006;50.956;7.002;2022-07-01T00:41:25;17.60;99.90
5960;DHT22;3006;50.956;7.002;2022-07-01T00:43:54;17.50;99.90
5960;DHT22;3006;50.956;7.002;2022-07-01T00:46:24;17.50;99.90
5960;DHT22;3006;50.956;7.002;2022-07-01T00:48:55;17.50;99.90
5960;DHT22;3006;50.956;7.002;2022-07-01T00:51:23;17.50;99.90
5960;DHT22;3006;50.956;7.002;2022-07-01T00:53:52;17.40;99.90
5960;DHT22;3006;50.956;7.002;2022-07-01T00:56:20;17.50;99.90
5960;DHT22;3006;50.956;7.002;2022-07-01T00:58:49;17.50;99.90
5960;DHT22;3006;50.956;7.002;2022-07-01T01:01:17;17.50;99.90
5960;DHT22;3006;50.956;7.002;2022-07-01T01:03:47;17.50;99.90
5960;DHT22;3006;50.956;7.002;2022-07-01T01:06:16;17.60;99.90
5960;DHT22;3006;50.956;7.002;2022-07-01T01:08:44;17.60;99.90
5960;DHT22;3006;50.956;7.002;2022-07-01T01:11:13;17.50;99.90
5960;DHT22;3006;50.956;7.002;2022-07-01T01:13:41;17.50;99.90
5960;DHT22;3006;50.956;7.002;2022-07-01T01:16:18;17.60;99.90
5960;DHT22;3006;50.956;7.002;2022-07-01T01:18:49;17.50;99.90
5960;DHT22;3006;50.956;7.002;2022-07-01T01:21:18;17.40;99.90
5960;DHT22;3006;50.956;7.002;2022-07-01T01:23:46;17.50;99.90
5960;DHT22;3006;50.956;7.002;2022-07-01T01:26:16;17.60;99.90
5960;DHT22;3006;50.956;7.002;2022-07-01T01:28:45;17.60;99.90
5960;DHT22;3006;50.956;7.002;2022-07-01T01:31:13;17.60;99.90
5960;DHT22;3006;50.956;7.002;2022-07-01T01:33:41;17.60;99.90
5960;DHT22;3006;50.956;7.002;2022-07-01T01:36:10;17.50;99.90
5960;DHT22;3006;50.956;7.002;2022-07-01T01:38:40;17.60;99.90
5960;DHT22;3006;50.956;7.002;2022-07-01T01:41:08;17.50;99.90
5960;DHT22;3006;50.956;7.002;2022-07-01T01:43:36;17.50;99.90
5960;DHT22;3006;50.956;7.002;2022-07-01T01:46:04;17.50;99.90
5960;DHT22;3006;50.956;7.002;2022-07-01T01:48:33;17.60;99.90
5960;DHT22;3006;50.956;7.002;2022-07-01T01:51:01;17.60;99.90
5960;DHT22;3006;50.956;7.002;2022-07-01T01:53:29;17.60;99.90
5960;DHT22;3006;50.956;7.002;2022-07-01T01:55:59;17.60;99.90
5960;DHT22;3006;50.956;7.002;2022-07-01T01:58:27;17.70;99.90
5960;DHT22;3006;50.956;7.002;2022-07-01T02:00:55;17.70;99.90
5960;DHT22;3006;50.956;7.002;2022-07-01T02:03:23;17.60;99.90
5960;DHT22;3006;50.956;7.002;2022-07-01T02:05:51;17.60;99.90
5960;DHT22;3006;50.956;7.002;2022-07-01T02:08:19;17.50;99.90
5960;DHT22;3006;50.956;7.002;2022-07-01T02:10:48;17.60;99.90
5960;DHT22;3006;50.956;7.002;2022-07-01T02:13:21;17.50;99.90
5960;DHT22;3006;50.956;7.002;2022-07-01T02:15:49;17.50;99.90
5960;DHT22;3006;50.956;7.002;2022-07-01T02:18:18;17.50;99.90
5960;DHT22;3006;50.956;7.002;2022-07-01T02:20:46;17.50;99.90
5960;DHT22;3006;50.956;7.002;2022-07-01T02:23:14;17.50;99.90
5960;DHT22;3006;50.956;7.002;2022-07-01T02:25:42;17.40;99.90
5960;DHT22;3006;50.956;7.002;2022-07-01T02:28:11;17.50;99.90
5960;DHT22;3006;50.956;7.002;2022-07-01T02:30:40;17.50;99.90
5960;DHT22;3006;50.956;7.002;2022-07-01T02:33:09;17.50;99.90
5960;DHT22;3006;50.956;7.002;2022-07-01T02:35:40;17.50;99.90
5960;DHT22;3006;50.956;7.002;2022-07-01T02:38:15;17.50;99.90
5960;DHT22;3006;50.956;7.002;2022-07-01T02:40:43;17.50;99.90
5960;DHT22;3006;50.956;7.002;2022-07-01T02:43:11;17.30;99.90
5960;DHT22;3006;50.956;7.002;2022-07-01T02:45:41;17.30;99.90
5960;DHT22;3006;50.956;7.002;2022-07-01T02:48:09;17.30;99.90
5960;DHT22;3006;50.956;7.002;2022-07-01T02:50:37;17.30;99.90
5960;DHT22;3006;50.956;7.002;2022-07-01T02:53:05;17.20;99.90
5960;DHT22;3006;50.956;7.002;2022-07-01T02:55:34;17.30;99.90
5960;DHT22;3006;50.956;7.002;2022-07-01T02:58:02;17.20;99.90
5960;DHT22;3006;50.956;7.002;2022-07-01T03:00:31;17.10;99.90
5960;DHT22;3006;50.956;7.002;2022-07-01T03:03:00;17.10;99.90
5960;DHT22;3006;50.956;7.002;2022-07-01T03:05:29;17.10;99.90
5960;DHT22;3006;50.956;7.002;2022-07-01T03:07:57;17.10;99.90
5960;DHT22;3006;50.956;7.002;2022-07-01T03:10:25;17.20;99.90
5960;DHT22;3006;50.956;7.002;2022-07-01T03:12:53;17.20;99.90
5960;DHT22;3006;50.956;7.002;2022-07-01T03:15:21;17.20;99.90
5960;DHT22;3006;50.956;7.002;2022-07-01T03:17:49;17.20;99.90
5960;DHT22;3006;50.956;7.002;2022-07-01T03:20:18;17.10;99.90
5960;DHT22;3006;50.956;7.002;2022-07-01T03:22:47;17.20;99.90
5960;DHT22;3006;50.956;7.002;2022-07-01T03:25:16;17.00;99.90
5960;DHT22;3006;50.956;7.002;2022-07-01T03:27:45;17.10;99.90
5960;DHT22;3006;50.956;7.002;2022-07-01T03:30:15;17.10;99.90
5960;DHT22;3006;50.956;7.002;2022-07-01T03:32:44;17.20;99.90
5960;DHT22;3006;50.956;7.002;2022-07-01T03:35:13;17.30;99.90
5960;DHT22;3006;50.956;7.002;2022-07-01T03:38:00;17.30;99.90
5960;DHT22;3006;50.956;7.002;2022-07-01T03:40:28;17.30;99.90
5960;DHT22;3006;50.956;7.002;2022-07-01T03:42:56;17.20;99.90
5960;DHT22;3006;50.956;7.002;2022-07-01T03:45:24;17.20;99.90
5960;DHT22;3006;50.956;7.002;2022-07-01T03:47:52;17.20;99.90
5960;DHT22;3006;50.956;7.002;2022-07-01T03:50:22;17.20;99.90
5960;DHT22;3006;50.956;7.002;2022-07-01T03:52:50;17.30;99.90
5960;DHT22;3006;50.956;7.002;2022-07-01T03:55:41;17.20;99.90
5960;DHT22;3006;50.956;7.002;2022-07-01T03:58:08;17.20;99.90
5960;DHT22;3006;50.956;7.002;2022-07-01T04:00:38;17.20;99.90
5960;DHT22;3006;50.956;7.002;2022-07-01T04:03:06;17.30;99.90
5960;DHT22;3006;50.956;7.002;2022-07-01T04:05:36;17.30;99.90
5960;DHT22;3006;50.956;7.002;2022-07-01T04:08:05;17.40;99.90
5960;DHT22;3006;50.956;7.002;2022-07-01T04:10:34;17.40;99.90
5960;DHT22;3006;50.956;7.002;2022-07-01T04:13:04;17.30;99.90
5960;DHT22;3006;50.956;7.002;2022-07-01T04:15:52;17.40;99.90
5960;DHT22;3006;50.956;7.002;2022-07-01T04:18:20;17.30;99.90
5960;DHT22;3006;50.956;7.002;2022-07-01T04:20:49;17.40;99.90
5960;DHT22;3006;50.956;7.002;2022-07-01T04:23:31;17.40;99.90
5960;DHT22;3006;50.956;7.002;2022-07-01T04:26:00;17.50;99.90
5960;DHT22;3006;50.956;7.002;2022-07-01T04:28:50;17.40;99.90
5960;DHT22;3006;50.956;7.002;2022-07-01T04:31:19;17.40;99.90
5960;DHT22;3006;50.956;7.002;2022-07-01T04:33:47;17.40;99.90
5960;DHT22;3006;50.956;7.002;2022-07-01T04:36:16;17.40;99.90
5960;DHT22;3006;50.956;7.002;2022-07-01T04:38:44;17.40;99.90
5960;DHT22;3006;50.956;7.002;2022-07-01T04:41:12;17.40;99.90
5960;DHT22;3006;50.956;7.002;2022-07-01T04:43:59;17.40;99.90
5960;DHT22;3006;50.956;7.002;2022-07-01T04:46:27;17.40;99.90
5960;DHT22;3006;50.956;7.002;2022-07-01T04:48:56;17.30;99.90
5960;DHT22;3006;50.956;7.002;2022-07-01T04:51:24;17.30;99.90
5960;DHT22;3006;50.956;7.002;2022-07-01T04:53:52;17.30;99.90
5960;DHT22;3006;50.956;7.002;2022-07-01T04:56:21;17.40;99.90
5960;DHT22;3006;50.956;7.002;2022-07-01T04:58:49;17.40;99.90
5960;DHT22;3006;50.956;7.002;2022-07-01T05:01:18;17.30;99.90
5960;DHT22;3006;50.956;7.002;2022-07-01T05:03:46;17.30;99.90
5960;DHT22;3006;50.956;7.002;2022-07-01T05:06:15;17.40;99.90
5960;DHT22;3006;50.956;7.002;2022-07-01T05:08:43;17.40;99.90
5960;DHT22;3006;50.956;7.002;2022-07-01T05:11:12;17.50;99.90
5960;DHT22;3006;50.956;7.002;2022-07-01T05:13:40;17.50;99.90
5960;DHT22;3006;50.956;7.002;2022-07-01T05:16:08;17.30;99.90
5960;DHT22;3006;50.956;7.002;2022-07-01T05:18:38;17.30;99.90
5960;DHT22;3006;50.956;7.002;2022-07-01T05:21:24;17.30;99.90
5960;DHT22;3006;50.956;7.002;2022-07-01T05:24:09;17.40;99.90
5960;DHT22;3006;50.956;7.002;2022-07-01T05:26:37;17.40;99.90
5960;DHT22;3006;50.956;7.002;2022-07-01T05:29:06;17.40;99.90
5960;DHT22;3006;50.956;7.002;2022-07-01T05:31:34;17.40;99.90
5960;DHT22;3006;50.956;7.002;2022-07-01T05:34:03;17.40;99.90
5960;DHT22;3006;50.956;7.002;2022-07-01T05:36:33;17.40;99.90
5960;DHT22;3006;50.956;7.002;2022-07-01T05:39:02;17.40;99.90
5960;DHT22;3006;50.956;7.002;2022-07-01T05:41:30;17.50;99.90
5960;DHT22;3006;50.956;7.002;2022-07-01T05:43:59;17.50;99.90
5960;DHT22;3006;50.956;7.002;2022-07-01T05:46:27;17.60;99.90
5960;DHT22;3006;50.956;7.002;2022-07-01T05:48:56;17.50;99.90
5960;DHT22;3006;50.956;7.002;2022-07-01T05:51:25;17.40;99.90
5960;DHT22;3006;50.956;7.002;2022-07-01T05:53:54;17.30;99.90
5960;DHT22;3006;50.956;7.002;2022-07-01T05:56:23;17.20;99.90
5960;DHT22;3006;50.956;7.002;2022-07-01T05:58:52;17.20;99.90
5960;DHT22;3006;50.956;7.002;2022-07-01T06:01:21;17.30;99.90
5960;DHT22;3006;50.956;7.002;2022-07-01T06:03:49;17.30;99.90
5960;DHT22;3006;50.956;7.002;2022-07-01T06:06:17;17.30;99.90
5960;DHT22;3006;50.956;7.002;2022-07-01T06:08:48;17.50;99.90
5960;DHT22;3006;50.956;7.002;2022-07-01T06:11:16;17.50;99.90
5960;DHT22;3006;50.956;7.002;2022-07-01T06:13:44;17.50;99.90
5960;DHT22;3006;50.956;7.002;2022-07-01T06:16:12;17.60;99.90
5960;DHT22;3006;50.956;7.002;2022-07-01T06:18:40;17.70;99.90
5960;DHT22;3006;50.956;7.002;2022-07-01T06:21:08;17.90;99.90
5960;DHT22;3006;50.956;7.002;2022-07-01T06:23:36;18.00;99.90
5960;DHT22;3006;50.956;7.002;2022-07-01T06:26:07;18.00;99.90
5960;DHT22;3006;50.956;7.002;2022-07-01T06:28:35;18.00;99.90
5960;DHT22;3006;50.956;7.002;2022-07-01T06:31:03;18.00;99.90
5960;DHT22;3006;50.956;7.002;2022-07-01T06:33:31;18.10;99.90
5960;DHT22;3006;50.956;7.002;2022-07-01T06:35:59;18.10;99.90
5960;DHT22;3006;50.956;7.002;2022-07-01T06:38:29;18.10;99.90
5960;DHT22;3006;50.956;7.002;2022-07-01T06:40:57;18.20;99.90
5960;DHT22;3006;50.956;7.002;2022-07-01T06:43:44;18.30;99.90
5960;DHT22;3006;50.956;7.002;2022-07-01T06:46:13;18.30;99.70
5960;DHT22;3006;50.956;7.002;2022-07-01T06:48:45;18.40;99.40
5960;DHT22;3006;50.956;7.002;2022-07-01T06:51:13;18.40;99.30
5960;DHT22;3006;50.956;7.002;2022-07-01T06:53:42;18.50;99.40
5960;DHT22;3006;50.956;7.002;2022-07-01T06:56:11;18.60;99.60
5960;DHT22;3006;50.956;7.002;2022-07-01T06:58:40;18.60;99.30
5960;DHT22;3006;50.956;7.002;2022-07-01T07:01:10;18.60;99.20
5960;DHT22;3006;50.956;7.002;2022-07-01T07:03:38;18.40;99.10
5960;DHT22;3006;50.956;7.002;2022-07-01T07:06:06;18.40;99.20
5960;DHT22;3006;50.956;7.002;2022-07-01T07:08:34;18.50;99.10
5960;DHT22;3006;50.956;7.002;2022-07-01T07:11:03;18.40;99.10
5960;DHT22;3006;50.956;7.002;2022-07-01T07:13:31;18.40;99.10
5960;DHT22;3006;50.956;7.002;2022-07-01T07:15:59;18.40;99.30
5960;DHT22;3006;50.956;7.002;2022-07-01T07:18:28;18.30;99.20
5960;DHT22;3006;50.956;7.002;2022-07-01T07:20:56;18.30;99.20
5960;DHT22;3006;50.956;7.002;2022-07-01T07:23:26;18.30;99.40
5960;DHT22;3006;50.956;7.002;2022-07-01T07:25:54;18.30;99.40
5960;DHT22;3006;50.956;7.002;2022-07-01T07:28:23;18.30;99.30
5960;DHT22;3006;50.956;7.002;2022-07-01T07:30:51;18.30;99.70
5960;DHT22;3006;50.956;7.002;2022-07-01T07:33:20;18.30;99.60
5960;DHT22;3006;50.956;7.002;2022-07-01T07:35:49;18.30;99.70
5960;DHT22;3006;50.956;7.002;2022-07-01T07:38:18;18.30;99.70
5960;DHT22;3006;50.956;7.002;2022-07-01T07:40:46;18.50;99.60
5960;DHT22;3006;50.956;7.002;2022-07-01T07:43:14;18.50;99.80
5960;DHT22;3006;50.956;7.002;2022-07-01T07:45:42;18.60;99.70
5960;DHT22;3006;50.956;7.002;2022-07-01T07:48:11;18.60;99.50
5960;DHT22;3006;50.956;7.002;2022-07-01T07:50:39;18.70;99.50
5960;DHT22;3006;50.956;7.002;2022-07-01T07:53:08;18.70;99.40
5960;DHT22;3006;50.956;7.002;2022-07-01T07:55:39;18.80;99.30
5960;DHT22;3006;50.956;7.002;2022-07-01T07:58:07;18.90;98.80
5960;DHT22;3006;50.956;7.002;2022-07-01T08:00:35;19.00;98.70
5960;DHT22;3006;50.956;7.002;2022-07-01T08:03:06;19.10;98.60
5960;DHT22;3006;50.956;7.002;2022-07-01T08:05:35;19.10;98.50
5960;DHT22;3006;50.956;7.002;2022-07-01T08:08:04;19.20;98.60
5960;DHT22;3006;50.956;7.002;2022-07-01T08:10:34;19.20;98.40
5960;DHT22;3006;50.956;7.002;2022-07-01T08:13:02;19.10;98.40
5960;DHT22;3006;50.956;7.002;2022-07-01T08:15:31;19.10;98.30
5960;DHT22;3006;50.956;7.002;2022-07-01T08:17:59;19.10;98.30
5960;DHT22;3006;50.956;7.002;2022-07-01T08:20:28;19.10;97.90
5960;DHT22;3006;50.956;7.002;2022-07-01T08:22:56;19.10;97.80
5960;DHT22;3006;50.956;7.002;2022-07-01T08:25:25;19.10;98.10
5960;DHT22;3006;50.956;7.002;2022-07-01T08:28:02;19.20;98.20
5960;DHT22;3006;50.956;7.002;2022-07-01T08:30:30;19.50;97.90
5960;DHT22;3006;50.956;7.002;2022-07-01T08:32:59;19.60;97.40
5960;DHT22;3006;50.956;7.002;2022-07-01T08:35:28;19.70;97.40
5960;DHT22;3006;50.956;7.002;2022-07-01T08:37:57;19.80;97.50
5960;DHT22;3006;50.956;7.002;2022-07-01T08:40:25;19.60;97.40
5960;DHT22;3006;50.956;7.002;2022-07-01T08:42:58;19.50;97.70
5960;DHT22;3006;50.956;7.002;2022-07-01T08:45:29;19.40;97.90
5960;DHT22;3006;50.956;7.002;2022-07-01T08:48:00;19.50;97.80
5960;DHT22;3006;50.956;7.002;2022-07-01T08:50:30;19.40;98.00
5960;DHT22;3006;50.956;7.002;2022-07-01T08:52:58;19.40;97.90
5960;DHT22;3006;50.956;7.002;2022-07-01T08:55:27;19.40;97.90
5960;DHT22;3006;50.956;7.002;2022-07-01T08:57:56;19.40;98.30
5960;DHT22;3006;50.956;7.002;2022-07-01T09:00:30;19.50;98.10
5960;DHT22;3006;50.956;7.002;2022-07-01T09:03:01;19.50;98.10
5960;DHT22;3006;50.956;7.002;2022-07-01T09:05:31;19.70;97.80
5960;DHT22;3006;50.956;7.002;2022-07-01T09:08:00;19.80;96.90
5960;DHT22;3006;50.956;7.002;2022-07-01T09:10:30;20.00;96.30
5960;DHT22;3006;50.956;7.002;2022-07-01T09:13:04;20.00;96.10
5960;DHT22;3006;50.956;7.002;2022-07-01T09:15:35;20.00;95.90
5960;DHT22;3006;50.956;7.002;2022-07-01T09:18:09;19.90;96.30
5960;DHT22;3006;50.956;7.002;2022-07-01T09:20:39;19.90;96.00
5960;DHT22;3006;50.956;7.002;2022-07-01T09:23:09;20.00;96.20
5960;DHT22;3006;50.956;7.002;2022-07-01T09:25:39;20.00;95.80
5960;DHT22;3006;50.956;7.002;2022-07-01T09:28:21;20.00;96.00
5960;DHT22;3006;50.956;7.002;2022-07-01T09:30:52;20.00;95.40
5960;DHT22;3006;50.956;7.002;2022-07-01T09:33:22;20.00;95.60
5960;DHT22;3006;50.956;7.002;2022-07-01T09:35:52;20.10;95.40
5960;DHT22;3006;50.956;7.002;2022-07-01T09:38:22;20.20;95.20
5960;DHT22;3006;50.956;7.002;2022-07-01T09:41:00;20.40;95.20
5960;DHT22;3006;50.956;7.002;2022-07-01T09:43:29;20.40;95.00
5960;DHT22;3006;50.956;7.002;2022-07-01T09:46:00;20.50;94.30
5960;DHT22;3006;50.956;7.002;2022-07-01T09:48:43;20.40;94.40
5960;DHT22;3006;50.956;7.002;2022-07-01T09:51:13;20.30;95.00
5960;DHT22;3006;50.956;7.002;2022-07-01T09:53:43;20.30;95.10
5960;DHT22;3006;50.956;7.002;2022-07-01T09:56:11;20.40;94.90
5960;DHT22;3006;50.956;7.002;2022-07-01T09:58:39;20.50;94.60
5960;DHT22;3006;50.956;7.002;2022-07-01T10:01:13;20.60;94.70
5960;DHT22;3006;50.956;7.002;2022-07-01T10:03:42;20.80;94.40
5960;DHT22;3006;50.956;7.002;2022-07-01T10:06:36;20.70;94.00
5960;DHT22;3006;50.956;7.002;2022-07-01T10:09:24;20.70;93.80
5960;DHT22;3006;50.956;7.002;2022-07-01T10:12:27;20.40;93.70
5960;DHT22;3006;50.956;7.002;2022-07-01T10:14:58;20.20;94.30
5960;DHT22;3006;50.956;7.002;2022-07-01T10:17:30;20.20;93.70
5960;DHT22;3006;50.956;7.002;2022-07-01T10:20:07;20.30;93.40
5960;DHT22;3006;50.956;7.002;2022-07-01T10:22:37;20.60;93.40
5960;DHT22;3006;50.956;7.002;2022-07-01T10:25:31;20.60;92.20
5960;DHT22;3006;50.956;7.002;2022-07-01T10:28:19;20.50;92.40
5960;DHT22;3006;50.956;7.002;2022-07-01T10:30:56;20.50;92.40
5960;DHT22;3006;50.956;7.002;2022-07-01T10:33:32;20.50;92.10
5960;DHT22;3006;50.956;7.002;2022-07-01T10:36:12;20.40;92.40
5960;DHT22;3006;50.956;7.002;2022-07-01T10:39:10;20.20;92.70
5960;DHT22;3006;50.956;7.002;2022-07-01T10:41:42;20.20;92.80
5960;DHT22;3006;50.956;7.002;2022-07-01T10:44:59;20.30;92.70
5960;DHT22;3006;50.956;7.002;2022-07-01T10:47:28;20.60;92.80
5960;DHT22;3006;50.956;7.002;2022-07-01T10:50:03;20.80;92.70
5960;DHT22;3006;50.956;7.002;2022-07-01T10:52:32;21.00;92.70
5960;DHT22;3006;50.956;7.002;2022-07-01T10:55:03;21.20;92.30
5960;DHT22;3006;50.956;7.002;2022-07-01T10:57:34;21.20;92.00
5960;DHT22;3006;50.956;7.002;2022-07-01T11:00:28;21.40;91.90
5960;DHT22;3006;50.956;7.002;2022-07-01T11:03:20;21.50;91.80
5960;DHT22;3006;50.956;7.002;2022-07-01T11:05:52;21.50;91.70
5960;DHT22;3006;50.956;7.002;2022-07-01T11:08:21;21.20;91.90
5960;DHT22;3006;50.956;7.002;2022-07-01T11:10:58;21.00;92.50
5960;DHT22;3006;50.956;7.002;2022-07-01T11:13:29;21.00;92.30
5960;DHT22;3006;50.956;7.002;2022-07-01T11:15:57;21.00;92.50
5960;DHT22;3006;50.956;7.002;2022-07-01T11:18:25;21.00;92.50
5960;DHT22;3006;50.956;7.002;2022-07-01T11:21:05;21.10;92.40
5960;DHT22;3006;50.956;7.002;2022-07-01T11:23:34;21.20;91.80
5960;DHT22;3006;50.956;7.002;2022-07-01T11:26:07;21.20;92.00
5960;DHT22;3006;50.956;7.002;2022-07-01T11:28:40;21.10;91.80
5960;DHT22;3006;50.956;7.002;2022-07-01T11:31:08;21.00;91.90
5960;DHT22;3006;50.956;7.002;2022-07-01T11:33:37;21.10;92.10
5960;DHT22;3006;50.956;7.002;2022-07-01T11:36:08;21.10;92.80
5960;DHT22;3006;50.956;7.002;2022-07-01T11:38:55;21.10;92.80
5960;DHT22;3006;50.956;7.002;2022-07-01T11:41:40;21.00;93.00
5960;DHT22;3006;50.956;7.002;2022-07-01T11:44:09;21.20;92.60
5960;DHT22;3006;50.956;7.002;2022-07-01T11:46:37;21.20;91.50
5960;DHT22;3006;50.956;7.002;2022-07-01T11:49:11;21.40;91.20
5960;DHT22;3006;50.956;7.002;2022-07-01T11:51:41;21.50;90.90
5960;DHT22;3006;50.956;7.002;2022-07-01T11:54:19;21.60;90.60
5960;DHT22;3006;50.956;7.002;2022-07-01T11:56:49;21.70;91.70
5960;DHT22;3006;50.956;7.002;2022-07-01T11:59:17;21.60;91.10
5960;DHT22;3006;50.956;7.002;2022-07-01T12:01:52;21.40;91.10
5960;DHT22;3006;50.956;7.002;2022-07-01T12:04:21;21.40;91.30
5960;DHT22;3006;50.956;7.002;2022-07-01T12:06:51;21.40;91.20
5960;DHT22;3006;50.956;7.002;2022-07-01T12:09:19;21.50;91.30
5960;DHT22;3006;50.956;7.002;2022-07-01T12:11:49;21.60;90.80
5960;DHT22;3006;50.956;7.002;2022-07-01T12:14:22;21.60;90.30
5960;DHT22;3006;50.956;7.002;2022-07-01T12:16:51;21.70;90.20
5960;DHT22;3006;50.956;7.002;2022-07-01T12:19:20;21.90;89.60
5960;DHT22;3006;50.956;7.002;2022-07-01T12:21:57;22.00;89.70
5960;DHT22;3006;50.956;7.002;2022-07-01T12:24:28;22.10;88.20
5960;DHT22;3006;50.956;7.002;2022-07-01T12:27:03;22.10;86.50
5960;DHT22;3006;50.956;7.002;2022-07-01T12:29:49;22.20;86.40
5960;DHT22;3006;50.956;7.002;2022-07-01T12:32:18;22.30;83.70
5960;DHT22;3006;50.956;7.002;2022-07-01T12:34:52;22.20;84.30
5960;DHT22;3006;50.956;7.002;2022-07-01T12:37:30;22.40;85.30
5960;DHT22;3006;50.956;7.002;2022-07-01T12:40:00;22.40;86.80
5960;DHT22;3006;50.956;7.002;2022-07-01T12:42:30;22.40;84.60
5960;DHT22;3006;50.956;7.002;2022-07-01T12:45:00;22.30;84.50
5960;DHT22;3006;50.956;7.002;2022-07-01T12:47:30;22.00;83.30
5960;DHT22;3006;50.956;7.002;2022-07-01T12:50:12;22.00;82.90
5960;DHT22;3006;50.956;7.002;2022-07-01T12:52:43;22.30;83.80
5960;DHT22;3006;50.956;7.002;2022-07-01T12:55:15;22.80;82.80
5960;DHT22;3006;50.956;7.002;2022-07-01T12:57:43;23.00;82.60
5960;DHT22;3006;50.956;7.002;2022-07-01T13:00:12;23.00;82.00
5960;DHT22;3006;50.956;7.002;2022-07-01T13:02:40;22.80;82.70
5960;DHT22;3006;50.956;7.002;2022-07-01T13:05:09;22.90;83.50
5960;DHT22;3006;50.956;7.002;2022-07-01T13:07:37;23.00;83.80
5960;DHT22;3006;50.956;7.002;2022-07-01T13:10:14;22.80;84.80
5960;DHT22;3006;50.956;7.002;2022-07-01T13:12:42;22.80;85.60
5960;DHT22;3006;50.956;7.002;2022-07-01T13:15:12;22.70;84.30
5960;DHT22;3006;50.956;7.002;2022-07-01T13:17:41;22.80;85.60
5960;DHT22;3006;50.956;7.002;2022-07-01T13:20:10;22.80;85.00
5960;DHT22;3006;50.956;7.002;2022-07-01T13:22:40;23.00;85.30
5960;DHT22;3006;50.956;7.002;2022-07-01T13:25:09;23.20;83.00
5960;DHT22;3006;50.956;7.002;2022-07-01T13:27:39;23.30;82.20
5960;DHT22;3006;50.956;7.002;2022-07-01T13:30:08;23.50;82.40
5960;DHT22;3006;50.956;7.002;2022-07-01T13:32:37;23.20;81.60
5960;DHT22;3006;50.956;7.002;2022-07-01T13:35:07;23.10;80.90
5960;DHT22;3006;50.956;7.002;2022-07-01T13:37:36;23.30;81.60
5960;DHT22;3006;50.956;7.002;2022-07-01T13:40:05;23.70;80.40
5960;DHT22;3006;50.956;7.002;2022-07-01T13:42:35;24.10;80.20
5960;DHT22;3006;50.956;7.002;2022-07-01T13:45:06;24.40;77.80
5960;DHT22;3006;50.956;7.002;2022-07-01T13:47:34;24.60;77.60
5960;DHT22;3006;50.956;7.002;2022-07-01T13:50:03;24.60;75.40
5960;DHT22;3006;50.956;7.002;2022-07-01T13:52:31;24.30;75.40
5960;DHT22;3006;50.956;7.002;2022-07-01T13:54:59;24.40;76.60
5960;DHT22;3006;50.956;7.002;2022-07-01T13:57:28;24.60;76.60
5960;DHT22;3006;50.956;7.002;2022-07-01T13:59:56;24.80;76.60
5960;DHT22;3006;50.956;7.002;2022-07-01T14:02:26;25.00;75.30
5960;DHT22;3006;50.956;7.002;2022-07-01T14:04:54;25.00;74.80
5960;DHT22;3006;50.956;7.002;2022-07-01T14:07:22;25.40;74.30
5960;DHT22;3006;50.956;7.002;2022-07-01T14:09:50;25.50;74.00
5960;DHT22;3006;50.956;7.002;2022-07-01T14:12:18;25.10;74.20
5960;DHT22;3006;50.956;7.002;2022-07-01T14:14:55;25.10;74.80
5960;DHT22;3006;50.956;7.002;2022-07-01T14:17:23;24.80;74.50
5960;DHT22;3006;50.956;7.002;2022-07-01T14:19:53;24.50;75.20
5960;DHT22;3006;50.956;7.002;2022-07-01T14:22:23;24.40;75.30
5960;DHT22;3006;50.956;7.002;2022-07-01T14:24:52;24.30;75.40
5960;DHT22;3006;50.956;7.002;2022-07-01T14:27:20;24.80;75.50
5960;DHT22;3006;50.956;7.002;2022-07-01T14:29:48;24.70;73.40
5960;DHT22;3006;50.956;7.002;2022-07-01T14:32:23;24.50;74.50
5960;DHT22;3006;50.956;7.002;2022-07-01T14:34:56;24.40;74.50
5960;DHT22;3006;50.956;7.002;2022-07-01T14:37:24;24.30;73.30
5960;DHT22;3006;50.956;7.002;2022-07-01T14:39:53;23.90;73.50
5960;DHT22;3006;50.956;7.002;2022-07-01T14:42:24;23.60;74.50
5960;DHT22;3006;50.956;7.002;2022-07-01T14:44:53;23.50;75.60
5960;DHT22;3006;50.956;7.002;2022-07-01T14:47:21;23.30;75.10
5960;DHT22;3006;50.956;7.002;2022-07-01T14:49:50;23.10;75.90
5960;DHT22;3006;50.956;7.002;2022-07-01T14:52:22;23.60;76.70
5960;DHT22;3006;50.956;7.002;2022-07-01T14:54:51;24.20;76.30
5960;DHT22;3006;50.956;7.002;2022-07-01T14:57:20;25.00;74.70
5960;DHT22;3006;50.956;7.002;2022-07-01T14:59:48;25.30;72.20
5960;DHT22;3006;50.956;7.002;2022-07-01T15:02:17;25.40;70.90
5960;DHT22;3006;50.956;7.002;2022-07-01T15:04:46;25.40;72.30
5960;DHT22;3006;50.956;7.002;2022-07-01T15:07:14;25.60;71.70
5960;DHT22;3006;50.956;7.002;2022-07-01T15:09:44;26.00;70.90
5960;DHT22;3006;50.956;7.002;2022-07-01T15:12:12;26.00;70.00
5960;DHT22;3006;50.956;7.002;2022-07-01T15:14:40;26.10;70.80
5960;DHT22;3006;50.956;7.002;2022-07-01T15:17:09;26.50;69.70
5960;DHT22;3006;50.956;7.002;2022-07-01T15:19:37;26.70;68.20
5960;DHT22;3006;50.956;7.002;2022-07-01T15:22:07;27.20;67.90
5960;DHT22;3006;50.956;7.002;2022-07-01T15:24:36;27.80;65.70
5960;DHT22;3006;50.956;7.002;2022-07-01T15:27:06;27.90;64.90
5960;DHT22;3006;50.956;7.002;2022-07-01T15:29:35;26.70;66.50
5960;DHT22;3006;50.956;7.002;2022-07-01T15:32:04;26.70;67.10
5960;DHT22;3006;50.956;7.002;2022-07-01T15:34:33;27.60;66.30
5960;DHT22;3006;50.956;7.002;2022-07-01T15:37:01;29.20;63.10
5960;DHT22;3006;50.956;7.002;2022-07-01T15:39:30;30.00;60.60
5960;DHT22;3006;50.956;7.002;2022-07-01T15:42:00;29.00;61.40
5960;DHT22;3006;50.956;7.002;2022-07-01T15:44:33;28.60;60.70
5960;DHT22;3006;50.956;7.002;2022-07-01T15:47:01;28.00;60.20
5960;DHT22;3006;50.956;7.002;2022-07-01T15:49:50;27.40;63.30
5960;DHT22;3006;50.956;7.002;2022-07-01T15:52:18;27.00;62.40
5960;DHT22;3006;50.956;7.002;2022-07-01T15:54:46;26.70;62.50
5960;DHT22;3006;50.956;7.002;2022-07-01T15:57:15;26.00;63.40
5960;DHT22;3006;50.956;7.002;2022-07-01T15:59:44;25.50;64.20
5960;DHT22;3006;50.956;7.002;2022-07-01T16:02:14;25.00;65.10
5960;DHT22;3006;50.956;7.002;2022-07-01T16:04:47;25.00;65.80
5960;DHT22;3006;50.956;7.002;2022-07-01T16:07:22;25.00;66.40
5960;DHT22;3006;50.956;7.002;2022-07-01T16:09:54;24.90;67.10
5960;DHT22;3006;50.956;7.002;2022-07-01T16:12:25;24.60;67.30
5960;DHT22;3006;50.956;7.002;2022-07-01T16:14:57;24.50;67.70
5960;DHT22;3006;50.956;7.002;2022-07-01T16:17:27;24.70;68.20
5960;DHT22;3006;50.956;7.002;2022-07-01T16:19:57;24.90;67.20
5960;DHT22;3006;50.956;7.002;2022-07-01T16:22:26;25.50;67.20
5960;DHT22;3006;50.956;7.002;2022-07-01T16:24:55;25.80;65.80